LFMT 210400Z AUTO 31009KT CAVOK 02/M05 Q1024 NOSIG

ElémentsDécodage
LFMT Station météo située sur l'aérodrome de MONTPELLIER Méditerranée
210400Z émis le 21 du mois à 04h00 UTC
AUTO Bulletin édité par un automate
31009KT vent du 310°, 09 noeuds
CAVOK Ceiling And Visibility OK
- Visibilité de 10 Km ou plus
- Pas de nuage au-dessous de 1500m ou au-dessous de l'altitude minimale du secteur la plus élevée (si>1500m) et absence de CB
- pas de temps présent significatif
02/M05 température 02°C, point de rosée -05°C
 soit une humidité relative de 60%
Q1024 la pression au niveau de la mer (QNH) est de 1024 hPa
NOSIG Pas de changement significatif prévu au cours des deux heures suivant l'heure de l'observation